createdAt,value
2022-08-24T00:00:37.208Z,100751.22
2022-08-24T00:03:07.489Z,100751.75
2022-08-24T00:05:39.963Z,100751.06
2022-08-24T00:08:09.795Z,100752.44
2022-08-24T00:10:39.627Z,100750.75
2022-08-24T00:13:09.354Z,100753.81
2022-08-24T00:15:39.135Z,100751.66
2022-08-24T00:18:09.387Z,100752.78
2022-08-24T00:20:45.224Z,100751.09
2022-08-24T00:23:15.291Z,100749.63
2022-08-24T00:25:45.469Z,100754.44
2022-08-24T00:28:15.442Z,100749.34
2022-08-24T00:30:45.237Z,100753.25
2022-08-24T00:33:14.969Z,100755.34
2022-08-24T00:35:47.386Z,100749.50
2022-08-24T00:38:17.480Z,100749.50
2022-08-24T00:43:22.374Z,100758.78
2022-08-24T00:45:57.393Z,100757.09
2022-08-24T00:48:29.886Z,100761.88
2022-08-24T00:51:05.462Z,100754.81
2022-08-24T00:53:37.981Z,100762.38
2022-08-24T00:56:11.540Z,100762.66
2022-08-24T00:58:45.243Z,100757.44
2022-08-24T01:01:16.290Z,100754.84
2022-08-24T01:03:47.414Z,100760.63
2022-08-24T01:06:19.804Z,100758.47
2022-08-24T01:08:56.466Z,100756.75
2022-08-24T01:11:33.775Z,100761.66
2022-08-24T01:14:04.916Z,100759.25
2022-08-24T01:16:47.146Z,100760.47
2022-08-24T01:19:21.667Z,100764.25
2022-08-24T01:22:02.156Z,100770.59
2022-08-24T01:24:35.456Z,100760.88
2022-08-24T01:27:05.959Z,100755.38
2022-08-24T01:29:38.281Z,100761.22
2022-08-24T01:32:09.346Z,100767.84
2022-08-24T01:34:39.552Z,100762.34
2022-08-24T01:37:11.188Z,100760.88
2022-08-24T01:39:47.858Z,100751.41
2022-08-24T01:42:18.271Z,100760.31
2022-08-24T01:44:49.254Z,100759.72
2022-08-24T01:47:19.893Z,100761.78
2022-08-24T01:49:51.715Z,100756.56
2022-08-24T01:52:38.900Z,100764.97
2022-08-24T01:55:22.463Z,100758.16
2022-08-24T01:57:53.182Z,100757.66
2022-08-24T02:00:23.702Z,100760.09
2022-08-24T02:02:55.499Z,100763.75
2022-08-24T02:05:27.559Z,100765.69
2022-08-24T02:07:58.682Z,100767.53
2022-08-24T02:10:31.972Z,100765.47
2022-08-24T02:13:02.620Z,100765.34
2022-08-24T02:15:39.838Z,100772.06
2022-08-24T02:18:15.038Z,100773.41
2022-08-24T02:20:46.207Z,100769.16
2022-08-24T02:23:16.013Z,100774.53
2022-08-24T02:25:48.342Z,100773.91
2022-08-24T02:28:18.495Z,100773.78
2022-08-24T02:30:48.255Z,100773.19
2022-08-24T02:33:20.106Z,100773.53
2022-08-24T02:35:50.033Z,100780.00
2022-08-24T02:38:20.731Z,100779.50
2022-08-24T02:40:53.262Z,100779.41
2022-08-24T02:43:23.238Z,100773.31
2022-08-24T02:45:53.461Z,100776.25
2022-08-24T02:48:25.740Z,100773.69
2022-08-24T02:50:55.798Z,100778.91
2022-08-24T02:53:26.636Z,100781.00
2022-08-24T02:55:58.961Z,100773.81
2022-08-24T02:58:28.636Z,100780.41
2022-08-24T03:00:58.635Z,100775.78
2022-08-24T03:03:28.954Z,100774.28
2022-08-24T03:05:59.347Z,100776.50
2022-08-24T03:08:29.234Z,100772.72
2022-08-24T03:11:01.842Z,100775.78
2022-08-24T03:13:32.124Z,100774.94
2022-08-24T03:16:02.558Z,100784.28
2022-08-24T03:18:33.456Z,100779.91
2022-08-24T03:21:07.253Z,100780.22
2022-08-24T03:23:42.287Z,100774.56
2022-08-24T03:26:16.821Z,100779.38
2022-08-24T03:28:47.020Z,100781.44
2022-08-24T03:31:19.411Z,100781.53
2022-08-24T03:33:50.421Z,100776.44
2022-08-24T03:36:20.508Z,100769.25
2022-08-24T03:38:50.243Z,100768.53
2022-08-24T03:41:23.908Z,100777.88
2022-08-24T03:43:56.023Z,100775.59
2022-08-24T03:46:28.920Z,100778.13
2022-08-24T03:49:00.109Z,100782.75
2022-08-24T03:51:31.738Z,100777.50
2022-08-24T03:54:02.892Z,100772.28
2022-08-24T03:56:36.246Z,100778.72
2022-08-24T03:59:06.549Z,100772.75
2022-08-24T04:01:41.592Z,100779.06
2022-08-24T04:04:12.064Z,100770.56
2022-08-24T04:06:44.423Z,100772.75
2022-08-24T04:09:14.905Z,100775.41
2022-08-24T04:11:51.914Z,100780.03
2022-08-24T04:14:27.742Z,100780.03
2022-08-24T04:17:14.410Z,100782.06
2022-08-24T04:19:57.877Z,100781.34
2022-08-24T04:22:34.169Z,100783.16
2022-08-24T04:25:09.543Z,100789.69
2022-08-24T04:27:43.907Z,100791.53
2022-08-24T04:30:15.391Z,100782.66
2022-08-24T04:33:03.928Z,100788.75
2022-08-24T04:35:34.195Z,100786.66
2022-08-24T04:38:04.006Z,100784.72
2022-08-24T04:40:34.207Z,100782.16
2022-08-24T04:43:08.676Z,100790.31
2022-08-24T04:45:42.645Z,100799.50
2022-08-24T04:48:13.129Z,100794.41
2022-08-24T04:50:44.648Z,100804.00
2022-08-24T04:53:16.158Z,100801.66
2022-08-24T04:55:52.579Z,100796.31
2022-08-24T04:58:25.054Z,100795.34
2022-08-24T05:00:54.985Z,100804.69
2022-08-24T05:03:25.370Z,100801.31
2022-08-24T05:05:55.418Z,100808.56
2022-08-24T05:08:25.153Z,100803.44
2022-08-24T05:10:55.058Z,100808.09
2022-08-24T05:13:27.461Z,100808.44
2022-08-24T05:15:59.099Z,100815.00
2022-08-24T05:18:30.303Z,100812.00
2022-08-24T05:21:00.062Z,100820.34
2022-08-24T05:23:30.746Z,100809.41
2022-08-24T05:26:08.510Z,100816.56
2022-08-24T05:28:41.912Z,100816.81
2022-08-24T05:31:12.863Z,100814.03
2022-08-24T05:33:43.462Z,100816.09
2022-08-24T05:36:19.181Z,100822.78
2022-08-24T05:38:49.968Z,100829.31
2022-08-24T05:41:20.829Z,100835.75
2022-08-24T05:43:59.970Z,100834.53
2022-08-24T05:46:31.702Z,100829.44
2022-08-24T05:49:02.727Z,100833.94
2022-08-24T05:51:34.466Z,100830.06
2022-08-24T05:54:09.157Z,100836.97
2022-08-24T05:56:52.250Z,100833.38
2022-08-24T05:59:24.680Z,100835.41
2022-08-24T06:01:57.214Z,100833.47
2022-08-24T06:04:29.148Z,100836.97
2022-08-24T06:07:00.715Z,100835.69
2022-08-24T06:09:31.821Z,100833.97
2022-08-24T06:12:02.335Z,100838.03
2022-08-24T06:14:35.992Z,100837.91
2022-08-24T06:17:07.987Z,100843.56
2022-08-24T06:19:38.518Z,100841.88
2022-08-24T06:22:08.203Z,100848.06
2022-08-24T06:24:51.990Z,100858.56
2022-08-24T06:27:25.573Z,100854.06
2022-08-24T06:30:01.625Z,100858.19
2022-08-24T06:32:49.775Z,100858.84
2022-08-24T06:35:47.741Z,100861.28
2022-08-24T06:38:19.547Z,100862.97
2022-08-24T06:40:50.429Z,100871.72
2022-08-24T06:43:22.840Z,100862.75
2022-08-24T06:46:01.086Z,100864.94
2022-08-24T06:48:34.466Z,100863.66
2022-08-24T06:51:04.183Z,100864.38
2022-08-24T06:53:35.083Z,100872.78
2022-08-24T06:56:06.146Z,100874.38
2022-08-24T06:58:38.560Z,100868.69
2022-08-24T07:01:18.441Z,100873.47
2022-08-24T07:03:49.311Z,100870.78
2022-08-24T07:06:39.624Z,100865.94
2022-08-24T07:09:09.351Z,100865.44
2022-08-24T07:11:39.360Z,100866.94
2022-08-24T07:14:09.513Z,100874.53
2022-08-24T07:16:42.872Z,100873.06
2022-08-24T07:19:12.698Z,100876.97
2022-08-24T07:21:42.906Z,100880.75
2022-08-24T07:24:13.650Z,100876.53
2022-08-24T07:26:44.378Z,100871.53
2022-08-24T07:29:45.869Z,100871.91
2022-08-24T07:32:10.458Z,100878.97
2022-08-24T07:34:43.799Z,100878.13
2022-08-24T07:37:13.584Z,100880.03
2022-08-24T07:39:48.343Z,100880.19
2022-08-24T07:42:29.538Z,100876.53
2022-08-24T07:45:02.677Z,100882.69
2022-08-24T07:47:39.529Z,100885.50
2022-08-24T07:50:24.636Z,100891.69
2022-08-24T07:52:54.679Z,100886.28
2022-08-24T07:55:25.319Z,100884.84
2022-08-24T07:57:56.641Z,100883.75
2022-08-24T08:00:26.579Z,100878.19
2022-08-24T08:03:05.475Z,100880.81
2022-08-24T08:05:42.772Z,100886.69
2022-08-24T08:08:12.951Z,100885.78
2022-08-24T08:10:43.648Z,100889.09
2022-08-24T08:13:13.454Z,100891.25
2022-08-24T08:15:43.495Z,100885.28
2022-08-24T08:18:16.849Z,100892.25
2022-08-24T08:20:48.658Z,100888.03
2022-08-24T08:23:31.303Z,100899.41
2022-08-24T08:26:15.687Z,100896.66
2022-08-24T08:29:18.399Z,100899.84
2022-08-24T08:31:48.362Z,100895.31
2022-08-24T08:34:21.428Z,100900.56
2022-08-24T08:36:51.915Z,100897.00
2022-08-24T08:39:23.749Z,100886.78
2022-08-24T08:42:15.051Z,100889.28
2022-08-24T08:44:56.446Z,100885.19
2022-08-24T08:47:49.404Z,100892.25
2022-08-24T08:50:28.243Z,100890.84
2022-08-24T08:53:18.298Z,100886.88
2022-08-24T08:55:55.280Z,100882.38
2022-08-24T08:58:53.701Z,100889.28
2022-08-24T09:01:46.768Z,100888.97
2022-08-24T09:04:46.856Z,100880.38
2022-08-24T09:07:43.580Z,100883.88
2022-08-24T09:10:33.803Z,100881.28
2022-08-24T09:13:13.811Z,100886.81
2022-08-24T09:16:09.839Z,100877.72
2022-08-24T09:18:54.341Z,100880.41
2022-08-24T09:21:48.076Z,100878.69
2022-08-24T09:24:40.788Z,100873.19
2022-08-24T09:27:34.680Z,100872.22
2022-08-24T09:30:11.349Z,100867.84
2022-08-24T09:33:03.721Z,100870.88
2022-08-24T09:35:38.711Z,100865.59
2022-08-24T09:38:20.459Z,100867.81
2022-08-24T09:41:15.850Z,100869.50
2022-08-24T09:44:17.254Z,100861.34
2022-08-24T09:47:15.399Z,100870.25
2022-08-24T09:50:04.959Z,100863.28
2022-08-24T09:52:56.591Z,100863.75
2022-08-24T09:55:56.808Z,100859.44
2022-08-24T09:58:39.988Z,100858.38
2022-08-24T10:01:16.609Z,100862.22
2022-08-24T10:03:58.344Z,100854.66
2022-08-24T10:06:38.016Z,100848.38
2022-08-24T10:09:24.068Z,100853.28
2022-08-24T10:11:58.734Z,100845.91
2022-08-24T10:14:44.254Z,100842.81
2022-08-24T10:17:21.530Z,100847.53
2022-08-24T10:19:58.104Z,100833.22
2022-08-24T10:22:39.343Z,100837.56
2022-08-24T10:25:26.190Z,100834.47
2022-08-24T10:28:04.754Z,100831.22
2022-08-24T10:30:50.369Z,100833.00
2022-08-24T10:33:23.958Z,100825.00
2022-08-24T10:36:18.326Z,100829.47
2022-08-24T10:39:05.025Z,100826.69
2022-08-24T10:42:01.561Z,100818.47
2022-08-24T10:44:47.158Z,100823.41
2022-08-24T10:47:24.513Z,100822.28
2022-08-24T10:50:21.715Z,100825.56
2022-08-24T10:53:22.076Z,100811.88
2022-08-24T10:56:00.590Z,100816.19
2022-08-24T10:58:43.274Z,100814.22
2022-08-24T11:01:19.176Z,100809.88
2022-08-24T11:03:58.121Z,100815.69
2022-08-24T11:06:30.886Z,100808.78
2022-08-24T11:09:04.115Z,100805.13
2022-08-24T11:11:36.829Z,100811.50
2022-08-24T11:14:13.156Z,100805.09
2022-08-24T11:16:45.588Z,100798.69
2022-08-24T11:19:33.916Z,100803.56
2022-08-24T11:22:05.817Z,100797.31
2022-08-24T11:24:46.144Z,100802.44
2022-08-24T11:27:25.523Z,100797.84
2022-08-24T11:30:01.766Z,100799.75
2022-08-24T11:32:34.829Z,100792.03
2022-08-24T11:35:11.493Z,100791.94
2022-08-24T11:37:42.279Z,100793.69
2022-08-24T11:40:13.711Z,100793.47
2022-08-24T11:43:09.512Z,100783.66
2022-08-24T11:45:44.589Z,100781.16
2022-08-24T11:48:27.252Z,100779.13
2022-08-24T11:51:08.356Z,100780.84
2022-08-24T11:53:43.939Z,100775.88
2022-08-24T11:56:20.520Z,100778.22
2022-08-24T11:58:57.098Z,100780.59
2022-08-24T12:01:31.925Z,100787.38
2022-08-24T12:04:28.851Z,100778.28
2022-08-24T12:07:09.006Z,100773.19
2022-08-24T12:09:50.909Z,100772.09
2022-08-24T12:12:26.156Z,100775.03
2022-08-24T12:15:01.822Z,100766.19
2022-08-24T12:17:37.600Z,100775.19
2022-08-24T12:20:11.115Z,100774.63
2022-08-24T12:22:44.532Z,100769.63
2022-08-24T12:25:27.843Z,100767.09
2022-08-24T12:27:58.636Z,100763.34
2022-08-24T12:30:29.587Z,100758.28
2022-08-24T12:33:01.808Z,100759.22
2022-08-24T12:35:35.340Z,100753.13
2022-08-24T12:38:14.128Z,100751.25
2022-08-24T12:40:48.039Z,100757.19
2022-08-24T12:43:21.869Z,100750.50
2022-08-24T12:45:52.113Z,100751.75
2022-08-24T12:48:26.699Z,100752.63
2022-08-24T12:51:11.490Z,100749.09
2022-08-24T12:54:06.459Z,100749.97
2022-08-24T12:57:02.637Z,100746.22
2022-08-24T12:59:35.012Z,100753.78
2022-08-24T13:02:07.520Z,100749.63
2022-08-24T13:04:41.160Z,100753.59
2022-08-24T13:07:14.969Z,100749.84
2022-08-24T13:09:49.266Z,100748.56
2022-08-24T13:12:49.548Z,100743.31
2022-08-24T13:15:28.628Z,100740.19
2022-08-24T13:18:03.207Z,100753.63
2022-08-24T13:20:57.117Z,100751.13
2022-08-24T13:23:27.475Z,100750.88
2022-08-24T13:26:01.838Z,100743.53
2022-08-24T13:28:41.833Z,100741.84
2022-08-24T13:31:23.123Z,100747.53
2022-08-24T13:33:56.184Z,100745.00
2022-08-24T13:37:06.770Z,100740.78
2022-08-24T13:39:55.293Z,100741.19
2022-08-24T13:43:06.039Z,100736.53
2022-08-24T13:45:40.972Z,100735.03
2022-08-24T13:48:21.499Z,100725.97
2022-08-24T13:51:08.720Z,100734.16
2022-08-24T13:53:50.636Z,100732.06
2022-08-24T13:56:44.488Z,100726.63
2022-08-24T13:59:22.512Z,100717.59
2022-08-24T14:02:11.043Z,100726.22
2022-08-24T14:04:47.499Z,100733.00
2022-08-24T14:07:21.917Z,100724.19
2022-08-24T14:10:09.295Z,100717.50
2022-08-24T14:12:49.368Z,100714.16
2022-08-24T14:15:28.538Z,100720.66
2022-08-24T14:18:07.987Z,100716.88
2022-08-24T14:21:05.654Z,100709.50
2022-08-24T14:23:50.149Z,100712.47
2022-08-24T14:26:52.995Z,100713.75
2022-08-24T14:29:35.256Z,100706.38
2022-08-24T14:32:32.929Z,100710.78
2022-08-24T14:35:24.050Z,100708.47
2022-08-24T14:38:20.233Z,100703.63
2022-08-24T14:41:21.086Z,100708.66
2022-08-24T14:44:07.054Z,100707.44
2022-08-24T14:46:41.806Z,100703.66
2022-08-24T14:49:19.345Z,100704.06
2022-08-24T14:52:04.018Z,100697.97
2022-08-24T14:54:40.005Z,100695.88
2022-08-24T14:57:23.314Z,100699.44
2022-08-24T15:00:03.401Z,100701.97
2022-08-24T15:03:14.820Z,100697.75
2022-08-24T15:06:26.338Z,100697.53
2022-08-24T15:09:07.623Z,100690.84
2022-08-24T15:11:40.193Z,100686.44
2022-08-24T15:14:15.185Z,100692.31
2022-08-24T15:16:53.985Z,100690.19
2022-08-24T15:19:27.965Z,100688.94
2022-08-24T15:22:05.148Z,100686.00
2022-08-24T15:24:40.075Z,100686.00
2022-08-24T15:27:16.720Z,100685.38
2022-08-24T15:29:52.996Z,100680.09
2022-08-24T15:32:28.411Z,100678.44
2022-08-24T15:35:00.940Z,100682.84
2022-08-24T15:37:37.065Z,100674.44
2022-08-24T15:40:12.034Z,100682.88
2022-08-24T15:42:44.922Z,100672.78
2022-08-24T15:45:16.192Z,100679.47
2022-08-24T15:47:51.740Z,100678.84
2022-08-24T15:50:27.509Z,100670.88
2022-08-24T15:53:02.064Z,100673.81
2022-08-24T15:55:38.656Z,100668.38
2022-08-24T15:58:26.787Z,100672.56
2022-08-24T16:01:14.560Z,100676.56
2022-08-24T16:03:51.075Z,100673.00
2022-08-24T16:06:27.033Z,100673.16
2022-08-24T16:09:04.977Z,100671.72
2022-08-24T16:11:38.430Z,100671.94
2022-08-24T16:14:13.222Z,100672.13
2022-08-24T16:16:45.683Z,100674.03
2022-08-24T16:19:25.862Z,100669.41
2022-08-24T16:21:59.397Z,100671.47
2022-08-24T16:24:36.704Z,100676.09
2022-08-24T16:27:09.398Z,100667.28
2022-08-24T16:29:59.967Z,100671.28
2022-08-24T16:32:50.728Z,100669.19
2022-08-24T16:35:23.149Z,100665.84
2022-08-24T16:37:54.737Z,100665.00
2022-08-24T16:40:27.398Z,100665.84
2022-08-24T16:42:57.306Z,100666.66
2022-08-24T16:45:26.955Z,100668.75
2022-08-24T16:47:56.690Z,100671.88
2022-08-24T16:50:27.254Z,100668.16
2022-08-24T16:52:57.202Z,100675.06
2022-08-24T16:55:30.360Z,100666.03
2022-08-24T16:58:01.473Z,100670.03
2022-08-24T17:00:31.613Z,100670.38
2022-08-24T17:03:01.384Z,100665.56
2022-08-24T17:05:31.394Z,100670.38
2022-08-24T17:08:01.802Z,100672.06
2022-08-24T17:10:37.808Z,100676.22
2022-08-24T17:13:07.902Z,100678.34
2022-08-24T17:15:39.076Z,100675.19
2022-08-24T17:18:12.108Z,100670.53
2022-08-24T17:20:41.823Z,100676.59
2022-08-24T17:23:11.466Z,100679.13
2022-08-24T17:25:44.256Z,100674.91
2022-08-24T17:28:16.464Z,100672.81
2022-08-24T17:30:49.705Z,100678.03
2022-08-24T17:33:21.114Z,100677.75
2022-08-24T17:35:51.767Z,100677.91
2022-08-24T17:38:21.388Z,100687.16
2022-08-24T17:40:53.683Z,100682.50
2022-08-24T17:43:24.813Z,100686.06
2022-08-24T17:45:55.197Z,100686.22
2022-08-24T17:48:28.438Z,100705.06
2022-08-24T17:50:58.162Z,100699.75
2022-08-24T17:53:27.832Z,100703.06
2022-08-24T17:56:00.116Z,100706.75
2022-08-24T17:58:29.743Z,100704.03
2022-08-24T18:00:59.489Z,100705.44
2022-08-24T18:03:29.184Z,100710.47
2022-08-24T18:05:58.768Z,100710.66
2022-08-24T18:08:29.004Z,100706.44
2022-08-24T18:11:01.274Z,100704.53
2022-08-24T18:13:30.927Z,100715.16
2022-08-24T18:16:00.667Z,100712.78
2022-08-24T18:18:30.482Z,100720.63
2022-08-24T18:21:00.142Z,100711.84
2022-08-24T18:23:29.809Z,100709.19
2022-08-24T18:26:02.592Z,100723.31
2022-08-24T18:28:33.371Z,100717.91
2022-08-24T18:31:03.119Z,100724.28
2022-08-24T18:33:32.871Z,100719.69
2022-08-24T18:36:05.399Z,100722.06
2022-08-24T18:38:35.254Z,100730.53
2022-08-24T18:41:07.715Z,100736.06
2022-08-24T18:43:37.314Z,100735.81
2022-08-24T18:46:07.466Z,100739.28
2022-08-24T18:48:37.219Z,100742.81
2022-08-24T18:51:07.191Z,100742.63
2022-08-24T18:53:37.274Z,100743.91
2022-08-24T18:56:12.501Z,100746.34
2022-08-24T18:58:42.605Z,100740.97
2022-08-24T19:01:13.295Z,100752.59
2022-08-24T19:03:43.584Z,100749.09
2022-08-24T19:06:13.338Z,100753.25
2022-08-24T19:08:43.013Z,100753.16
2022-08-24T19:11:17.423Z,100757.78
2022-08-24T19:13:47.985Z,100753.91
2022-08-24T19:16:17.792Z,100749.53
2022-08-24T19:18:50.101Z,100752.09
2022-08-24T19:21:19.781Z,100749.91
2022-08-24T19:23:49.977Z,100754.53
2022-08-24T19:26:23.856Z,100758.13
2022-08-24T19:28:53.947Z,100754.78
2022-08-24T19:31:28.128Z,100754.47
2022-08-24T19:33:59.976Z,100755.88
2022-08-24T19:36:33.770Z,100760.75
2022-08-24T19:39:03.624Z,100767.22
2022-08-24T19:41:37.163Z,100760.97
2022-08-24T19:44:23.283Z,100765.22
2022-08-24T19:46:57.322Z,100768.78
2022-08-24T19:49:27.332Z,100764.06
2022-08-24T19:51:57.443Z,100765.78
2022-08-24T19:54:27.236Z,100762.22
2022-08-24T19:57:01.735Z,100757.97
2022-08-24T19:59:38.898Z,100760.66
2022-08-24T20:02:08.861Z,100760.34
2022-08-24T20:04:38.573Z,100759.69
2022-08-24T20:07:09.122Z,100758.47
2022-08-24T20:09:38.789Z,100759.50
2022-08-24T20:12:11.647Z,100756.91
2022-08-24T20:14:41.629Z,100755.22
2022-08-24T20:17:11.336Z,100761.81
2022-08-24T20:19:41.513Z,100759.06
2022-08-24T20:22:13.331Z,100759.88
2022-08-24T20:24:43.406Z,100762.41
2022-08-24T20:27:23.843Z,100760.50
2022-08-24T20:29:54.053Z,100758.78
2022-08-24T20:32:24.018Z,100762.00
2022-08-24T20:34:53.655Z,100770.56
2022-08-24T20:37:25.454Z,100767.47
2022-08-24T20:39:56.322Z,100765.28
2022-08-24T20:42:31.635Z,100769.91
2022-08-24T20:45:02.228Z,100770.56
2022-08-24T20:47:31.902Z,100762.94
2022-08-24T20:50:01.558Z,100764.56
2022-08-24T20:52:31.351Z,100765.25
2022-08-24T20:55:04.842Z,100762.63
2022-08-24T20:57:37.299Z,100758.56
2022-08-24T21:00:09.175Z,100764.91
2022-08-24T21:02:38.864Z,100761.38
2022-08-24T21:05:09.718Z,100773.94
2022-08-24T21:07:41.279Z,100762.09
2022-08-24T21:10:11.727Z,100759.97
2022-08-24T21:12:44.213Z,100770.38
2022-08-24T21:15:14.498Z,100773.84
2022-08-24T21:17:44.862Z,100768.09
2022-08-24T21:20:16.667Z,100770.56
2022-08-24T21:22:47.462Z,100774.88
2022-08-24T21:25:17.545Z,100776.16
2022-08-24T21:27:51.163Z,100775.78
2022-08-24T21:30:22.820Z,100772.69
2022-08-24T21:33:05.060Z,100777.72
2022-08-24T21:35:35.264Z,100775.06
2022-08-24T21:38:05.015Z,100773.41
2022-08-24T21:40:35.567Z,100777.25
2022-08-24T21:43:14.888Z,100784.78
2022-08-24T21:45:48.881Z,100774.22
2022-08-24T21:48:18.875Z,100786.69
2022-08-24T21:50:49.320Z,100784.59
2022-08-24T21:53:19.357Z,100785.91
2022-08-24T21:55:49.418Z,100785.06
2022-08-24T21:58:21.986Z,100781.00
2022-08-24T22:00:51.868Z,100784.44
2022-08-24T22:03:22.513Z,100779.09
2022-08-24T22:05:52.178Z,100787.31
2022-08-24T22:08:21.988Z,100778.81
2022-08-24T22:10:53.025Z,100781.78
2022-08-24T22:13:25.313Z,100788.44
2022-08-24T22:15:55.020Z,100783.63
2022-08-24T22:18:24.795Z,100782.81
2022-08-24T22:20:54.670Z,100784.69
2022-08-24T22:23:24.451Z,100784.69
2022-08-24T22:25:54.508Z,100782.28
2022-08-24T22:28:26.829Z,100787.09
2022-08-24T22:30:56.773Z,100781.72
2022-08-24T22:33:26.769Z,100779.44
2022-08-24T22:35:56.498Z,100779.91
2022-08-24T22:38:26.158Z,100776.78
2022-08-24T22:40:58.681Z,100775.50
2022-08-24T22:43:51.594Z,100775.50
2022-08-24T22:46:22.295Z,100773.41
2022-08-24T22:48:52.295Z,100780.63
2022-08-24T22:51:22.024Z,100781.91
2022-08-24T22:53:51.850Z,100785.03
2022-08-24T22:56:23.569Z,100784.25
2022-08-24T22:58:56.317Z,100778.03
2022-08-24T23:01:28.555Z,100777.34
2022-08-24T23:04:00.703Z,100777.50
2022-08-24T23:06:31.143Z,100772.38
2022-08-24T23:09:00.990Z,100777.34
2022-08-24T23:11:32.258Z,100780.28
2022-08-24T23:14:06.919Z,100781.59
2022-08-24T23:16:38.177Z,100777.31
2022-08-24T23:19:20.637Z,100779.69
2022-08-24T23:21:50.325Z,100779.59
2022-08-24T23:24:20.302Z,100779.16
2022-08-24T23:26:50.187Z,100783.69
2022-08-24T23:29:23.371Z,100780.69
2022-08-24T23:31:53.659Z,100781.53
2022-08-24T23:34:24.303Z,100783.06
2022-08-24T23:36:54.508Z,100783.34
2022-08-24T23:39:24.309Z,100777.97
2022-08-24T23:41:54.032Z,100781.75
2022-08-24T23:44:29.396Z,100784.72
2022-08-24T23:47:00.364Z,100784.88
2022-08-24T23:49:31.183Z,100780.84
2022-08-24T23:52:01.410Z,100785.53
2022-08-24T23:54:31.121Z,100784.81
2022-08-24T23:57:03.901Z,100773.47
2022-08-24T23:59:36.187Z,100768.25
